sensor_id;sensor_type;location;lat;lon;timestamp;pressure;altitude;pressure_sealevel;temperature;humidity
8653;BME280;4364;52.426;9.424;2023-01-26T00:02:20;101987.75;;;-2.36;93.19
8653;BME280;4364;52.426;9.424;2023-01-26T00:04:47;101993.03;;;-2.44;92.95
8653;BME280;4364;52.426;9.424;2023-01-26T00:07:13;101994.72;;;-2.43;93.07
8653;BME280;4364;52.426;9.424;2023-01-26T00:09:40;101989.13;;;-2.58;93.49
8653;BME280;4364;52.426;9.424;2023-01-26T00:12:07;101988.31;;;-2.58;93.19
8653;BME280;4364;52.426;9.424;2023-01-26T00:14:33;101979.00;;;-2.54;92.71
8653;BME280;4364;52.426;9.424;2023-01-26T00:17:17;101971.22;;;-2.48;93.47
8653;BME280;4364;52.426;9.424;2023-01-26T00:19:55;101969.00;;;-2.52;92.97
8653;BME280;4364;52.426;9.424;2023-01-26T00:22:24;101960.47;;;-2.64;94.33
8653;BME280;4364;52.426;9.424;2023-01-26T00:24:51;101961.00;;;-2.61;94.52
8653;BME280;4364;52.426;9.424;2023-01-26T00:27:18;101960.75;;;-2.41;94.53
8653;BME280;4364;52.426;9.424;2023-01-26T00:29:44;101956.88;;;-2.55;95.13
8653;BME280;4364;52.426;9.424;2023-01-26T00:32:11;101954.16;;;-2.63;95.06
8653;BME280;4364;52.426;9.424;2023-01-26T00:34:40;101953.03;;;-2.61;95.54
8653;BME280;4364;52.426;9.424;2023-01-26T00:37:08;101956.31;;;-2.67;96.04
8653;BME280;4364;52.426;9.424;2023-01-26T00:39:35;101958.31;;;-2.69;96.77
8653;BME280;4364;52.426;9.424;2023-01-26T00:42:01;101951.03;;;-2.58;96.28
8653;BME280;4364;52.426;9.424;2023-01-26T00:44:37;101947.69;;;-2.52;96.53
8653;BME280;4364;52.426;9.424;2023-01-26T00:47:05;101942.25;;;-2.43;96.36
8653;BME280;4364;52.426;9.424;2023-01-26T00:49:33;101944.25;;;-2.45;97.02
8653;BME280;4364;52.426;9.424;2023-01-26T00:52:00;101933.22;;;-2.58;97.46
8653;BME280;4364;52.426;9.424;2023-01-26T00:54:29;101936.03;;;-2.59;97.72
8653;BME280;4364;52.426;9.424;2023-01-26T00:56:56;101940.56;;;-2.52;97.78
8653;BME280;4364;52.426;9.424;2023-01-26T00:59:22;101928.44;;;-2.46;97.04
8653;BME280;4364;52.426;9.424;2023-01-26T01:01:49;101924.63;;;-2.44;97.14
8653;BME280;4364;52.426;9.424;2023-01-26T01:04:16;101926.94;;;-2.49;96.85
8653;BME280;4364;52.426;9.424;2023-01-26T01:06:43;101917.94;;;-2.48;97.12
8653;BME280;4364;52.426;9.424;2023-01-26T01:09:10;101931.63;;;-2.34;97.53
8653;BME280;4364;52.426;9.424;2023-01-26T01:11:36;101925.63;;;-2.36;97.61
8653;BME280;4364;52.426;9.424;2023-01-26T01:14:03;101914.69;;;-2.25;97.36
8653;BME280;4364;52.426;9.424;2023-01-26T01:16:30;101909.69;;;-2.20;97.59
8653;BME280;4364;52.426;9.424;2023-01-26T01:18:56;101918.88;;;-2.14;97.12
8653;BME280;4364;52.426;9.424;2023-01-26T01:21:23;101906.19;;;-2.29;96.33
8653;BME280;4364;52.426;9.424;2023-01-26T01:23:51;101908.81;;;-2.37;96.57
8653;BME280;4364;52.426;9.424;2023-01-26T01:26:18;101907.28;;;-2.48;97.24
8653;BME280;4364;52.426;9.424;2023-01-26T01:28:45;101915.59;;;-2.51;97.96
8653;BME280;4364;52.426;9.424;2023-01-26T01:31:14;101912.47;;;-2.38;97.74
8653;BME280;4364;52.426;9.424;2023-01-26T01:33:41;101898.13;;;-2.45;97.80
8653;BME280;4364;52.426;9.424;2023-01-26T01:36:13;101899.78;;;-2.44;98.35
8653;BME280;4364;52.426;9.424;2023-01-26T01:38:41;101897.47;;;-2.47;98.51
8653;BME280;4364;52.426;9.424;2023-01-26T01:41:09;101903.00;;;-2.40;98.84
8653;BME280;4364;52.426;9.424;2023-01-26T01:43:35;101901.16;;;-2.40;99.15
8653;BME280;4364;52.426;9.424;2023-01-26T01:48:57;101883.84;;;-2.36;98.82
8653;BME280;4364;52.426;9.424;2023-01-26T01:51:32;101893.66;;;-2.36;98.88
8653;BME280;4364;52.426;9.424;2023-01-26T01:54:05;101883.16;;;-2.38;99.52
8653;BME280;4364;52.426;9.424;2023-01-26T01:56:36;101885.03;;;-2.30;99.37
8653;BME280;4364;52.426;9.424;2023-01-26T01:59:05;101882.88;;;-2.27;99.22
8653;BME280;4364;52.426;9.424;2023-01-26T02:01:33;101894.50;;;-2.28;99.50
8653;BME280;4364;52.426;9.424;2023-01-26T02:04:04;101893.38;;;-2.25;99.73
8653;BME280;4364;52.426;9.424;2023-01-26T02:06:52;101889.03;;;-2.26;99.62
8653;BME280;4364;52.426;9.424;2023-01-26T02:09:35;101879.53;;;-2.29;99.90
8653;BME280;4364;52.426;9.424;2023-01-26T02:12:25;101866.22;;;-2.29;100.00
8653;BME280;4364;52.426;9.424;2023-01-26T02:14:52;101878.53;;;-2.28;100.00
8653;BME280;4364;52.426;9.424;2023-01-26T02:17:20;101877.22;;;-2.24;100.00
8653;BME280;4364;52.426;9.424;2023-01-26T02:23:14;101872.56;;;-2.13;100.00
8653;BME280;4364;52.426;9.424;2023-01-26T02:28:25;101861.75;;;-2.12;99.77
8653;BME280;4364;52.426;9.424;2023-01-26T02:30:52;101859.09;;;-2.12;99.71
8653;BME280;4364;52.426;9.424;2023-01-26T02:33:22;101865.88;;;-2.17;100.00
8653;BME280;4364;52.426;9.424;2023-01-26T02:35:50;101862.41;;;-2.10;100.00
8653;BME280;4364;52.426;9.424;2023-01-26T02:38:18;101859.56;;;-2.16;100.00
8653;BME280;4364;52.426;9.424;2023-01-26T02:41:00;101863.56;;;-2.12;100.00
8653;BME280;4364;52.426;9.424;2023-01-26T02:43:28;101859.22;;;-2.21;100.00
8653;BME280;4364;52.426;9.424;2023-01-26T02:45:56;101865.72;;;-2.24;100.00
8653;BME280;4364;52.426;9.424;2023-01-26T02:48:23;101870.38;;;-2.26;100.00
8653;BME280;4364;52.426;9.424;2023-01-26T02:51:09;101859.41;;;-2.23;100.00
8653;BME280;4364;52.426;9.424;2023-01-26T02:53:36;101860.56;;;-2.17;100.00
8653;BME280;4364;52.426;9.424;2023-01-26T02:56:02;101861.91;;;-2.21;100.00
8653;BME280;4364;52.426;9.424;2023-01-26T02:58:29;101868.06;;;-2.13;100.00
8653;BME280;4364;52.426;9.424;2023-01-26T03:00:55;101868.53;;;-2.26;100.00
8653;BME280;4364;52.426;9.424;2023-01-26T03:03:23;101868.72;;;-2.27;100.00
8653;BME280;4364;52.426;9.424;2023-01-26T03:05:50;101865.06;;;-2.18;100.00
8653;BME280;4364;52.426;9.424;2023-01-26T03:08:17;101864.06;;;-2.17;100.00
8653;BME280;4364;52.426;9.424;2023-01-26T03:10:44;101863.75;;;-2.06;100.00
8653;BME280;4364;52.426;9.424;2023-01-26T03:13:13;101870.56;;;-2.11;100.00
8653;BME280;4364;52.426;9.424;2023-01-26T03:15:40;101862.41;;;-2.18;100.00
8653;BME280;4364;52.426;9.424;2023-01-26T03:18:15;101870.41;;;-2.10;100.00
8653;BME280;4364;52.426;9.424;2023-01-26T03:21:03;101864.41;;;-2.12;100.00
8653;BME280;4364;52.426;9.424;2023-01-26T03:23:49;101859.91;;;-2.11;100.00
8653;BME280;4364;52.426;9.424;2023-01-26T03:26:35;101861.75;;;-2.12;100.00
8653;BME280;4364;52.426;9.424;2023-01-26T03:29:20;101855.06;;;-2.16;100.00
8653;BME280;4364;52.426;9.424;2023-01-26T03:31:47;101850.94;;;-2.02;100.00
8653;BME280;4364;52.426;9.424;2023-01-26T03:34:16;101854.59;;;-2.03;100.00
8653;BME280;4364;52.426;9.424;2023-01-26T03:36:44;101847.25;;;-2.09;100.00
8653;BME280;4364;52.426;9.424;2023-01-26T03:39:13;101847.25;;;-2.09;100.00
8653;BME280;4364;52.426;9.424;2023-01-26T03:42:01;101852.91;;;-2.04;100.00
8653;BME280;4364;52.426;9.424;2023-01-26T03:44:46;101843.44;;;-1.98;100.00
8653;BME280;4364;52.426;9.424;2023-01-26T03:47:32;101835.94;;;-2.03;100.00
8653;BME280;4364;52.426;9.424;2023-01-26T03:50:18;101831.94;;;-2.07;100.00
8653;BME280;4364;52.426;9.424;2023-01-26T03:53:19;101832.28;;;-2.02;100.00
8653;BME280;4364;52.426;9.424;2023-01-26T03:56:09;101833.75;;;-1.91;100.00
8653;BME280;4364;52.426;9.424;2023-01-26T03:58:56;101838.75;;;-1.96;100.00
8653;BME280;4364;52.426;9.424;2023-01-26T04:01:26;101831.25;;;-2.01;100.00
8653;BME280;4364;52.426;9.424;2023-01-26T04:03:56;101834.94;;;-2.10;100.00
8653;BME280;4364;52.426;9.424;2023-01-26T04:06:44;101837.75;;;-2.12;100.00
8653;BME280;4364;52.426;9.424;2023-01-26T04:09:31;101839.25;;;-2.17;100.00
8653;BME280;4364;52.426;9.424;2023-01-26T04:11:58;101835.09;;;-2.03;100.00
8653;BME280;4364;52.426;9.424;2023-01-26T04:14:24;101824.09;;;-2.09;100.00
8653;BME280;4364;52.426;9.424;2023-01-26T04:17:17;101823.75;;;-1.97;100.00
8653;BME280;4364;52.426;9.424;2023-01-26T04:20:04;101809.94;;;-2.01;100.00
8653;BME280;4364;52.426;9.424;2023-01-26T04:22:49;101823.44;;;-1.94;100.00
8653;BME280;4364;52.426;9.424;2023-01-26T04:25:17;101820.59;;;-1.93;100.00
8653;BME280;4364;52.426;9.424;2023-01-26T04:27:45;101820.44;;;-1.99;100.00
8653;BME280;4364;52.426;9.424;2023-01-26T04:30:14;101819.28;;;-1.89;100.00
8653;BME280;4364;52.426;9.424;2023-01-26T04:32:41;101815.91;;;-1.99;100.00
8653;BME280;4364;52.426;9.424;2023-01-26T04:35:08;101822.28;;;-1.92;100.00
8653;BME280;4364;52.426;9.424;2023-01-26T04:37:37;101812.75;;;-1.70;100.00
8653;BME280;4364;52.426;9.424;2023-01-26T04:40:05;101815.75;;;-1.89;100.00
8653;BME280;4364;52.426;9.424;2023-01-26T04:42:33;101810.09;;;-1.86;100.00
8653;BME280;4364;52.426;9.424;2023-01-26T04:45:02;101821.44;;;-1.84;100.00
8653;BME280;4364;52.426;9.424;2023-01-26T04:47:29;101814.94;;;-1.90;100.00
8653;BME280;4364;52.426;9.424;2023-01-26T04:49:56;101804.44;;;-1.75;100.00
8653;BME280;4364;52.426;9.424;2023-01-26T04:52:22;101805.78;;;-1.87;100.00
8653;BME280;4364;52.426;9.424;2023-01-26T04:54:49;101806.28;;;-1.92;100.00
8653;BME280;4364;52.426;9.424;2023-01-26T04:57:16;101801.59;;;-1.81;100.00
8653;BME280;4364;52.426;9.424;2023-01-26T04:59:48;101811.13;;;-1.87;100.00
8653;BME280;4364;52.426;9.424;2023-01-26T05:02:16;101813.25;;;-1.91;100.00
8653;BME280;4364;52.426;9.424;2023-01-26T05:04:43;101809.44;;;-1.96;100.00
8653;BME280;4364;52.426;9.424;2023-01-26T05:07:10;101808.09;;;-1.92;100.00
8653;BME280;4364;52.426;9.424;2023-01-26T05:09:37;101804.09;;;-1.80;100.00
8653;BME280;4364;52.426;9.424;2023-01-26T05:12:26;101804.09;;;-1.72;100.00
8653;BME280;4364;52.426;9.424;2023-01-26T05:15:17;101804.44;;;-1.66;100.00
8653;BME280;4364;52.426;9.424;2023-01-26T05:18:00;101806.78;;;-1.80;100.00
8653;BME280;4364;52.426;9.424;2023-01-26T05:20:36;101806.28;;;-1.75;100.00
8653;BME280;4364;52.426;9.424;2023-01-26T05:23:13;101810.91;;;-1.69;100.00
8653;BME280;4364;52.426;9.424;2023-01-26T05:25:59;101805.59;;;-1.86;100.00
8653;BME280;4364;52.426;9.424;2023-01-26T05:28:27;101807.94;;;-1.82;100.00
8653;BME280;4364;52.426;9.424;2023-01-26T05:30:54;101803.94;;;-1.87;100.00
8653;BME280;4364;52.426;9.424;2023-01-26T05:33:21;101807.91;;;-1.74;100.00
8653;BME280;4364;52.426;9.424;2023-01-26T05:35:52;101802.94;;;-1.86;100.00
8653;BME280;4364;52.426;9.424;2023-01-26T05:38:19;101812.94;;;-1.79;100.00
8653;BME280;4364;52.426;9.424;2023-01-26T05:40:47;101810.91;;;-1.86;100.00
8653;BME280;4364;52.426;9.424;2023-01-26T05:43:15;101818.91;;;-1.86;100.00
8653;BME280;4364;52.426;9.424;2023-01-26T05:46:07;101814.59;;;-1.87;100.00
8653;BME280;4364;52.426;9.424;2023-01-26T05:48:34;101822.28;;;-1.92;100.00
8653;BME280;4364;52.426;9.424;2023-01-26T05:51:01;101809.09;;;-1.85;100.00
8653;BME280;4364;52.426;9.424;2023-01-26T05:53:31;101803.13;;;-1.95;100.00
8653;BME280;4364;52.426;9.424;2023-01-26T05:55:57;101800.28;;;-1.94;100.00
8653;BME280;4364;52.426;9.424;2023-01-26T05:58:30;101805.94;;;-1.97;100.00
8653;BME280;4364;52.426;9.424;2023-01-26T06:00:57;101816.63;;;-1.89;100.00
8653;BME280;4364;52.426;9.424;2023-01-26T06:03:28;101811.94;;;-1.95;100.00
8653;BME280;4364;52.426;9.424;2023-01-26T06:05:55;101813.25;;;-1.91;100.00
8653;BME280;4364;52.426;9.424;2023-01-26T06:08:35;101812.75;;;-1.94;100.00
8653;BME280;4364;52.426;9.424;2023-01-26T06:11:20;101815.75;;;-1.81;100.00
8653;BME280;4364;52.426;9.424;2023-01-26T06:14:04;101817.78;;;-1.91;100.00
8653;BME280;4364;52.426;9.424;2023-01-26T06:16:31;101811.44;;;-1.82;100.00
8653;BME280;4364;52.426;9.424;2023-01-26T06:18:58;101818.09;;;-1.94;100.00
8653;BME280;4364;52.426;9.424;2023-01-26T06:21:26;101808.44;;;-1.95;100.00
8653;BME280;4364;52.426;9.424;2023-01-26T06:23:54;101805.59;;;-1.86;100.00
8653;BME280;4364;52.426;9.424;2023-01-26T06:26:22;101809.59;;;-1.81;100.00
8653;BME280;4364;52.426;9.424;2023-01-26T06:28:50;101809.28;;;-1.87;100.00
8653;BME280;4364;52.426;9.424;2023-01-26T06:31:19;101819.44;;;-1.90;100.00
8653;BME280;4364;52.426;9.424;2023-01-26T06:33:47;101815.59;;;-1.79;100.00
8653;BME280;4364;52.426;9.424;2023-01-26T06:36:15;101820.44;;;-1.83;100.00
8653;BME280;4364;52.426;9.424;2023-01-26T06:38:48;101825.78;;;-1.83;100.00
8653;BME280;4364;52.426;9.424;2023-01-26T06:41:16;101823.44;;;-1.86;100.00
8653;BME280;4364;52.426;9.424;2023-01-26T06:43:45;101829.75;;;-1.71;100.00
8653;BME280;4364;52.426;9.424;2023-01-26T06:46:13;101823.94;;;-1.74;100.00
8653;BME280;4364;52.426;9.424;2023-01-26T06:48:41;101822.94;;;-1.81;100.00
8653;BME280;4364;52.426;9.424;2023-01-26T06:56:33;101815.44;;;-1.78;100.00
8653;BME280;4364;52.426;9.424;2023-01-26T06:59:15;101818.91;;;-1.86;100.00
8653;BME280;4364;52.426;9.424;2023-01-26T07:02:01;101822.13;;;-1.82;100.00
8653;BME280;4364;52.426;9.424;2023-01-26T07:04:27;101821.44;;;-1.84;100.00
8653;BME280;4364;52.426;9.424;2023-01-26T07:06:54;101822.06;;;-1.65;100.00
8653;BME280;4364;52.426;9.424;2023-01-26T07:09:20;101819.44;;;-1.74;100.00
8653;BME280;4364;52.426;9.424;2023-01-26T07:12:13;101820.28;;;-1.73;100.00
8653;BME280;4364;52.426;9.424;2023-01-26T07:14:39;101808.41;;;-1.71;100.00
8653;BME280;4364;52.426;9.424;2023-01-26T07:17:06;101817.59;;;-1.57;100.00
8653;BME280;4364;52.426;9.424;2023-01-26T07:19:33;101818.56;;;-1.58;100.00
8653;BME280;4364;52.426;9.424;2023-01-26T07:22:00;101825.03;;;-1.44;100.00
8653;BME280;4364;52.426;9.424;2023-01-26T07:24:27;101826.88;;;-1.44;100.00
8653;BME280;4364;52.426;9.424;2023-01-26T07:26:54;101820.91;;;-1.63;100.00
8653;BME280;4364;52.426;9.424;2023-01-26T07:29:21;101823.41;;;-1.61;100.00
8653;BME280;4364;52.426;9.424;2023-01-26T07:31:47;101812.56;;;-1.52;100.00
8653;BME280;4364;52.426;9.424;2023-01-26T07:34:15;101824.75;;;-1.65;100.00
8653;BME280;4364;52.426;9.424;2023-01-26T07:36:41;101819.09;;;-1.71;100.00
8653;BME280;4364;52.426;9.424;2023-01-26T07:39:08;101825.59;;;-1.65;100.00
8653;BME280;4364;52.426;9.424;2023-01-26T07:41:34;101820.44;;;-1.66;100.00
8653;BME280;4364;52.426;9.424;2023-01-26T07:44:14;101828.09;;;-1.55;100.00
8653;BME280;4364;52.426;9.424;2023-01-26T07:46:41;101823.91;;;-1.50;100.00
8653;BME280;4364;52.426;9.424;2023-01-26T07:49:10;101820.41;;;-1.58;100.00
8653;BME280;4364;52.426;9.424;2023-01-26T07:51:37;101823.91;;;-1.58;100.00
8653;BME280;4364;52.426;9.424;2023-01-26T07:54:09;101829.09;;;-1.56;100.00
8653;BME280;4364;52.426;9.424;2023-01-26T07:56:36;101837.25;;;-1.50;100.00
8653;BME280;4364;52.426;9.424;2023-01-26T07:59:03;101836.91;;;-1.55;100.00
8653;BME280;4364;52.426;9.424;2023-01-26T08:01:29;101836.91;;;-1.55;100.00
8653;BME280;4364;52.426;9.424;2023-01-26T08:03:57;101832.06;;;-1.51;100.00
8653;BME280;4364;52.426;9.424;2023-01-26T08:06:23;101833.91;;;-1.52;100.00
8653;BME280;4364;52.426;9.424;2023-01-26T08:08:50;101835.88;;;-1.37;100.00
8653;BME280;4364;52.426;9.424;2023-01-26T08:11:19;101848.88;;;-1.42;100.00
8653;BME280;4364;52.426;9.424;2023-01-26T08:13:48;101842.22;;;-1.38;100.00
8653;BME280;4364;52.426;9.424;2023-01-26T08:16:15;101840.72;;;-1.33;100.00
8653;BME280;4364;52.426;9.424;2023-01-26T08:18:44;101841.22;;;-1.37;100.00
8653;BME280;4364;52.426;9.424;2023-01-26T08:21:12;101849.59;;;-1.40;100.00
8653;BME280;4364;52.426;9.424;2023-01-26T08:23:40;101842.72;;;-1.35;100.00
8653;BME280;4364;52.426;9.424;2023-01-26T08:26:09;101850.38;;;-1.23;100.00
8653;BME280;4364;52.426;9.424;2023-01-26T08:28:36;101854.72;;;-1.31;100.00
8653;BME280;4364;52.426;9.424;2023-01-26T08:33:31;101849.38;;;-1.31;100.00
8653;BME280;4364;52.426;9.424;2023-01-26T08:36:02;101841.50;;;-1.24;100.00
8653;BME280;4364;52.426;9.424;2023-01-26T08:38:30;101843.53;;;-1.34;100.00
8653;BME280;4364;52.426;9.424;2023-01-26T08:40:57;101848.88;;;-1.34;100.00
8653;BME280;4364;52.426;9.424;2023-01-26T08:43:24;101848.69;;;-1.24;100.00
8653;BME280;4364;52.426;9.424;2023-01-26T08:45:51;101847.56;;;-1.30;100.00
8653;BME280;4364;52.426;9.424;2023-01-26T08:48:17;101843.38;;;-1.41;100.00
8653;BME280;4364;52.426;9.424;2023-01-26T08:50:45;101851.06;;;-1.38;100.00
8653;BME280;4364;52.426;9.424;2023-01-26T08:53:12;101856.06;;;-1.26;100.00
8653;BME280;4364;52.426;9.424;2023-01-26T08:55:39;101853.72;;;-1.29;100.00
8653;BME280;4364;52.426;9.424;2023-01-26T08:58:05;101844.19;;;-1.32;100.00
8653;BME280;4364;52.426;9.424;2023-01-26T09:00:32;101855.88;;;-1.25;100.00
8653;BME280;4364;52.426;9.424;2023-01-26T09:03:03;101853.22;;;-1.25;100.00
8653;BME280;4364;52.426;9.424;2023-01-26T09:05:34;101858.56;;;-1.33;100.00
8653;BME280;4364;52.426;9.424;2023-01-26T09:08:02;101859.56;;;-1.34;100.00
8653;BME280;4364;52.426;9.424;2023-01-26T09:10:29;101849.19;;;-1.29;100.00
8653;BME280;4364;52.426;9.424;2023-01-26T09:12:56;101851.34;;;-1.16;100.00
8653;BME280;4364;52.426;9.424;2023-01-26T09:15:23;101850.88;;;-1.20;100.00
8653;BME280;4364;52.426;9.424;2023-01-26T09:17:50;101844.78;;;-1.05;100.00
8653;BME280;4364;52.426;9.424;2023-01-26T09:20:18;101840.00;;;-1.10;100.00
8653;BME280;4364;52.426;9.424;2023-01-26T09:22:45;101848.63;;;-1.00;100.00
8653;BME280;4364;52.426;9.424;2023-01-26T09:25:13;101848.81;;;-1.01;100.00
8653;BME280;4364;52.426;9.424;2023-01-26T09:27:40;101853.94;;;-0.91;100.00
8653;BME280;4364;52.426;9.424;2023-01-26T09:30:07;101858.84;;;-1.03;100.00
8653;BME280;4364;52.426;9.424;2023-01-26T09:32:34;101851.47;;;-1.01;100.00
8653;BME280;4364;52.426;9.424;2023-01-26T09:35:01;101854.47;;;-0.96;100.00
8653;BME280;4364;52.426;9.424;2023-01-26T09:37:27;101848.63;;;-1.00;100.00
8653;BME280;4364;52.426;9.424;2023-01-26T09:39:54;101857.16;;;-1.04;100.00
8653;BME280;4364;52.426;9.424;2023-01-26T09:43:02;101862.78;;;-0.91;100.00
8653;BME280;4364;52.426;9.424;2023-01-26T09:45:53;101852.94;;;-0.90;100.00
8653;BME280;4364;52.426;9.424;2023-01-26T09:51:20;101849.13;;;-0.96;100.00
8653;BME280;4364;52.426;9.424;2023-01-26T09:54:16;101852.06;;;-0.83;100.00
8653;BME280;4364;52.426;9.424;2023-01-26T09:56:46;101853.47;;;-0.95;100.00
8653;BME280;4364;52.426;9.424;2023-01-26T09:59:18;101850.81;;;-0.95;100.00
8653;BME280;4364;52.426;9.424;2023-01-26T10:02:28;101850.81;;;-0.95;100.00
8653;BME280;4364;52.426;9.424;2023-01-26T10:05:03;101843.94;;;-0.98;100.00
8653;BME280;4364;52.426;9.424;2023-01-26T10:07:35;101845.78;;;-0.90;100.00
8653;BME280;4364;52.426;9.424;2023-01-26T10:10:03;101841.72;;;-0.86;100.00
8653;BME280;4364;52.426;9.424;2023-01-26T10:12:34;101831.22;;;-0.87;100.00
8653;BME280;4364;52.426;9.424;2023-01-26T10:15:04;101833.50;;;-0.76;100.00
8653;BME280;4364;52.426;9.424;2023-01-26T10:17:36;101834.78;;;-0.95;100.00
8653;BME280;4364;52.426;9.424;2023-01-26T10:20:08;101828.88;;;-0.90;100.00
8653;BME280;4364;52.426;9.424;2023-01-26T10:22:45;101835.53;;;-0.78;100.00
8653;BME280;4364;52.426;9.424;2023-01-26T10:25:26;101827.06;;;-0.90;100.00
8653;BME280;4364;52.426;9.424;2023-01-26T10:27:55;101823.72;;;-0.92;100.00
8653;BME280;4364;52.426;9.424;2023-01-26T10:30:22;101823.53;;;-0.82;100.00
8653;BME280;4364;52.426;9.424;2023-01-26T10:32:52;101823.22;;;-0.87;100.00
8653;BME280;4364;52.426;9.424;2023-01-26T10:35:21;101811.94;;;-0.66;100.00
8653;BME280;4364;52.426;9.424;2023-01-26T10:37:49;101810.13;;;-0.74;100.00
8653;BME280;4364;52.426;9.424;2023-01-26T10:40:18;101807.94;;;-0.70;100.00
8653;BME280;4364;52.426;9.424;2023-01-26T10:42:57;101812.84;;;-0.82;100.00
8653;BME280;4364;52.426;9.424;2023-01-26T10:45:31;101807.97;;;-0.79;100.00
8653;BME280;4364;52.426;9.424;2023-01-26T10:50:28;101794.56;;;-0.70;100.00
8653;BME280;4364;52.426;9.424;2023-01-26T10:53:02;101795.09;;;-0.67;100.00
8653;BME280;4364;52.426;9.424;2023-01-26T10:55:31;101802.59;;;-0.70;100.00
8653;BME280;4364;52.426;9.424;2023-01-26T10:57:59;101796.13;;;-0.76;100.00
8653;BME280;4364;52.426;9.424;2023-01-26T11:00:30;101798.94;;;-0.69;100.00
8653;BME280;4364;52.426;9.424;2023-01-26T11:03:05;101793.75;;;-0.71;100.00
8653;BME280;4364;52.426;9.424;2023-01-26T11:05:41;101789.78;;;-0.52;100.00
8653;BME280;4364;52.426;9.424;2023-01-26T11:08:30;101790.22;;;-0.63;100.00
8653;BME280;4364;52.426;9.424;2023-01-26T11:11:00;101797.25;;;-0.39;100.00
8653;BME280;4364;52.426;9.424;2023-01-26T11:13:28;101793.63;;;-0.46;100.00
8653;BME280;4364;52.426;9.424;2023-01-26T11:16:07;101784.88;;;-0.63;100.00
8653;BME280;4364;52.426;9.424;2023-01-26T11:18:55;101785.66;;;-0.54;100.00
8653;BME280;4364;52.426;9.424;2023-01-26T11:21:38;101773.88;;;-0.45;100.00
8653;BME280;4364;52.426;9.424;2023-01-26T11:24:24;101769.28;;;-0.51;100.00
8653;BME280;4364;52.426;9.424;2023-01-26T11:27:15;101769.91;;;-0.49;100.00
8653;BME280;4364;52.426;9.424;2023-01-26T11:29:49;101766.72;;;-0.45;100.00
8653;BME280;4364;52.426;9.424;2023-01-26T11:35:51;101772.19;;;-0.38;100.00
8653;BME280;4364;52.426;9.424;2023-01-26T11:38:39;101761.97;;;-0.34;100.00
8653;BME280;4364;52.426;9.424;2023-01-26T11:41:32;101762.38;;;-0.23;100.00
8653;BME280;4364;52.426;9.424;2023-01-26T11:46:57;101774.91;;;-0.23;100.00
8653;BME280;4364;52.426;9.424;2023-01-26T11:49:50;101766.44;;;-0.27;100.00
8653;BME280;4364;52.426;9.424;2023-01-26T11:55:27;101769.91;;;-0.26;100.00
8653;BME280;4364;52.426;9.424;2023-01-26T12:00:49;101761.09;;;-0.27;100.00
8653;BME280;4364;52.426;9.424;2023-01-26T12:03:34;101760.59;;;-0.30;100.00
8653;BME280;4364;52.426;9.424;2023-01-26T12:06:07;101752.94;;;-0.33;100.00
8653;BME280;4364;52.426;9.424;2023-01-26T12:11:28;101753.19;;;-0.20;100.00
8653;BME280;4364;52.426;9.424;2023-01-26T12:14:24;101750.84;;;-0.23;100.00
8653;BME280;4364;52.426;9.424;2023-01-26T12:17:09;101748.66;;;-0.20;100.00
8653;BME280;4364;52.426;9.424;2023-01-26T12:19:47;101736.63;;;-0.24;100.00
8653;BME280;4364;52.426;9.424;2023-01-26T12:22:25;101730.34;;;-0.31;100.00
8653;BME280;4364;52.426;9.424;2023-01-26T12:24:57;101739.19;;;-0.30;100.00
8653;BME280;4364;52.426;9.424;2023-01-26T12:33:33;101725.22;;;-0.17;100.00
8653;BME280;4364;52.426;9.424;2023-01-26T12:38:37;101727.16;;;-0.26;100.00
8653;BME280;4364;52.426;9.424;2023-01-26T12:41:21;101719.41;;;-0.21;100.00
8653;BME280;4364;52.426;9.424;2023-01-26T12:44:12;101726.78;;;-0.23;100.00
8653;BME280;4364;52.426;9.424;2023-01-26T12:46:46;101722.81;;;-0.27;100.00
8653;BME280;4364;52.426;9.424;2023-01-26T12:49:27;101715.53;;;-0.33;100.00
8653;BME280;4364;52.426;9.424;2023-01-26T12:52:03;101717.16;;;-0.32;100.00
8653;BME280;4364;52.426;9.424;2023-01-26T12:54:57;101721.50;;;-0.31;100.00
8653;BME280;4364;52.426;9.424;2023-01-26T12:57:34;101719.25;;;-0.20;100.00
8653;BME280;4364;52.426;9.424;2023-01-26T13:00:06;101711.13;;;-0.26;100.00
8653;BME280;4364;52.426;9.424;2023-01-26T13:02:45;101703.38;;;-0.21;100.00
8653;BME280;4364;52.426;9.424;2023-01-26T13:05:24;101705.06;;;-0.20;100.00
8653;BME280;4364;52.426;9.424;2023-01-26T13:07:50;101700.31;;;-0.33;100.00
8653;BME280;4364;52.426;9.424;2023-01-26T13:10:25;101700.34;;;-0.18;100.00
8653;BME280;4364;52.426;9.424;2023-01-26T13:13:00;101704.75;;;-0.25;100.00
8653;BME280;4364;52.426;9.424;2023-01-26T13:15:30;101698.03;;;-0.21;100.00
8653;BME280;4364;52.426;9.424;2023-01-26T13:17:58;101695.81;;;-0.17;100.00
8653;BME280;4364;52.426;9.424;2023-01-26T13:20:47;101702.50;;;-0.13;100.00
8653;BME280;4364;52.426;9.424;2023-01-26T13:23:37;101692.31;;;-0.18;100.00
8653;BME280;4364;52.426;9.424;2023-01-26T13:28:47;101701.56;;;-0.06;100.00
8653;BME280;4364;52.426;9.424;2023-01-26T13:31:29;101705.81;;;-0.11;100.00
8653;BME280;4364;52.426;9.424;2023-01-26T13:33:59;101709.19;;;-0.17;100.00
8653;BME280;4364;52.426;9.424;2023-01-26T13:36:29;101709.41;;;-0.04;100.00
8653;BME280;4364;52.426;9.424;2023-01-26T13:39:00;101708.84;;;-0.14;100.00
8653;BME280;4364;52.426;9.424;2023-01-26T13:41:28;101710.75;;;-0.23;100.00
8653;BME280;4364;52.426;9.424;2023-01-26T13:44:09;101704.56;;;-0.24;100.00
8653;BME280;4364;52.426;9.424;2023-01-26T13:46:42;101706.75;;;-0.27;100.00
8653;BME280;4364;52.426;9.424;2023-01-26T13:49:37;101710.28;;;-0.27;100.00
8653;BME280;4364;52.426;9.424;2023-01-26T13:52:16;101705.94;;;-0.28;100.00
8653;BME280;4364;52.426;9.424;2023-01-26T13:54:44;101711.50;;;-0.14;100.00
8653;BME280;4364;52.426;9.424;2023-01-26T13:57:19;101720.88;;;-0.19;100.00
8653;BME280;4364;52.426;9.424;2023-01-26T13:59:55;101722.56;;;-0.17;100.00
8653;BME280;4364;52.426;9.424;2023-01-26T14:02:31;101720.34;;;-0.14;100.00
8653;BME280;4364;52.426;9.424;2023-01-26T14:05:00;101728.91;;;-0.19;100.00
8653;BME280;4364;52.426;9.424;2023-01-26T14:07:31;101722.63;;;-0.26;100.00
8653;BME280;4364;52.426;9.424;2023-01-26T14:10:00;101714.91;;;-0.21;100.00
8653;BME280;4364;52.426;9.424;2023-01-26T14:12:41;101718.03;;;-0.17;100.00
8653;BME280;4364;52.426;9.424;2023-01-26T14:15:24;101719.78;;;-0.24;100.00
8653;BME280;4364;52.426;9.424;2023-01-26T14:17:59;101730.47;;;-0.24;100.00
8653;BME280;4364;52.426;9.424;2023-01-26T14:25:42;101715.34;;;-0.17;100.00